createdAt,value
2022-12-13T00:00:31.867Z,17.20
2022-12-13T00:03:18.766Z,17.03
2022-12-13T00:06:08.238Z,18.23
2022-12-13T00:08:55.321Z,19.70
2022-12-13T00:11:42.994Z,17.57
2022-12-13T00:14:29.971Z,16.23
2022-12-13T00:17:16.928Z,17.27
2022-12-13T00:20:04.686Z,18.53
2022-12-13T00:22:52.632Z,17.70
2022-12-13T00:25:39.604Z,17.13
2022-12-13T00:28:26.529Z,17.20
2022-12-13T00:31:53.291Z,17.73
2022-12-13T00:34:21.061Z,17.10
2022-12-13T00:37:08.895Z,19.60
2022-12-13T00:39:55.871Z,19.10
2022-12-13T00:42:42.811Z,18.10
2022-12-13T00:45:29.722Z,18.43
2022-12-13T00:48:16.611Z,17.67
2022-12-13T00:51:07.238Z,18.17
2022-12-13T00:53:54.806Z,18.73
2022-12-13T00:56:41.960Z,18.40
2022-12-13T00:59:28.901Z,16.90
2022-12-13T01:02:16.533Z,18.33
2022-12-13T01:05:03.667Z,18.73
2022-12-13T01:07:50.653Z,19.13
2022-12-13T01:10:37.647Z,18.93
2022-12-13T01:13:24.558Z,18.50
2022-12-13T01:16:12.694Z,18.00
2022-12-13T01:18:59.773Z,18.40
2022-12-13T01:21:46.756Z,19.13
2022-12-13T01:24:34.306Z,18.83
2022-12-13T01:27:21.238Z,18.40
2022-12-13T01:30:08.368Z,18.97
2022-12-13T01:32:55.286Z,18.57
2022-12-13T01:35:42.218Z,18.17
2022-12-13T01:38:29.443Z,19.23
2022-12-13T01:41:20.316Z,18.60
2022-12-13T01:44:51.933Z,18.83
2022-12-13T01:48:02.347Z,19.23
2022-12-13T01:50:53.126Z,18.37
2022-12-13T01:53:42.484Z,17.67
2022-12-13T01:56:36.292Z,17.93
2022-12-13T01:59:23.692Z,19.27
2022-12-13T02:02:13.835Z,19.57
2022-12-13T02:05:09.941Z,18.80
2022-12-13T02:07:59.848Z,18.83
2022-12-13T02:10:47.303Z,17.93
2022-12-13T02:13:34.207Z,19.70
2022-12-13T02:16:39.027Z,18.47
2022-12-13T02:19:47.110Z,19.37
2022-12-13T02:23:06.677Z,18.23
2022-12-13T02:26:19.891Z,19.47
2022-12-13T02:29:35.955Z,17.53
2022-12-13T02:32:37.425Z,17.73
2022-12-13T02:35:33.368Z,18.60
2022-12-13T02:38:32.018Z,17.57
2022-12-13T02:41:40.712Z,17.97
2022-12-13T02:44:34.197Z,17.13
2022-12-13T02:47:23.986Z,19.53
2022-12-13T02:50:13.823Z,18.93
2022-12-13T02:53:02.311Z,17.70
2022-12-13T02:55:49.539Z,17.97
2022-12-13T02:58:45.960Z,17.83
2022-12-13T03:02:10.492Z,16.40
2022-12-13T03:05:45.921Z,17.03
2022-12-13T03:08:41.648Z,16.00
2022-12-13T03:11:52.309Z,17.77
2022-12-13T03:14:46.638Z,17.47
2022-12-13T03:17:39.519Z,19.17
2022-12-13T03:20:29.480Z,16.83
2022-12-13T03:23:20.553Z,16.80
2022-12-13T03:26:13.421Z,16.80
2022-12-13T03:29:00.377Z,16.67
2022-12-13T03:31:47.377Z,17.13
2022-12-13T03:34:43.242Z,16.70
2022-12-13T03:37:33.354Z,16.50
2022-12-13T03:40:21.102Z,17.37
2022-12-13T03:43:08.160Z,17.60
2022-12-13T03:45:55.387Z,16.13
2022-12-13T03:48:42.362Z,17.27
2022-12-13T03:51:29.316Z,18.30
2022-12-13T03:54:16.303Z,16.57
2022-12-13T03:57:03.298Z,16.33
2022-12-13T03:59:50.182Z,16.50
2022-12-13T04:02:37.125Z,17.37
2022-12-13T04:05:24.154Z,17.83
2022-12-13T04:08:21.797Z,17.47
2022-12-13T04:11:28.086Z,18.00
2022-12-13T04:14:22.265Z,16.97
2022-12-13T04:17:09.908Z,17.93
2022-12-13T04:19:56.811Z,17.50
2022-12-13T04:22:43.764Z,17.03
2022-12-13T04:25:30.711Z,18.97
2022-12-13T04:28:22.212Z,17.80
2022-12-13T04:31:09.843Z,18.90
2022-12-13T04:33:56.831Z,19.77
2022-12-13T04:36:43.813Z,16.70
2022-12-13T04:39:34.134Z,17.17
2022-12-13T04:42:21.525Z,17.60
2022-12-13T04:45:09.755Z,17.17
2022-12-13T04:47:56.724Z,17.87
2022-12-13T04:50:43.666Z,17.73
2022-12-13T04:53:30.700Z,17.83
2022-12-13T04:56:17.865Z,19.33
2022-12-13T04:59:04.800Z,17.00
2022-12-13T05:01:51.797Z,18.67
2022-12-13T05:04:38.926Z,17.07
2022-12-13T05:07:26.621Z,17.33
2022-12-13T05:10:31.958Z,17.30
2022-12-13T05:13:20.536Z,18.60
2022-12-13T05:16:08.867Z,18.03
2022-12-13T05:18:56.861Z,17.27
2022-12-13T05:21:43.828Z,17.17
2022-12-13T05:24:31.731Z,19.53
2022-12-13T05:27:24.682Z,18.30
2022-12-13T05:30:13.360Z,18.13
2022-12-13T05:33:00.313Z,18.40
2022-12-13T05:35:47.416Z,18.50
2022-12-13T05:38:34.355Z,18.67
2022-12-13T05:41:24.740Z,17.80
2022-12-13T05:44:13.463Z,18.13
2022-12-13T05:47:02.008Z,18.53
2022-12-13T05:49:49.937Z,17.60
2022-12-13T05:52:36.917Z,18.20
2022-12-13T05:55:23.830Z,17.53
2022-12-13T05:58:13.453Z,17.50
2022-12-13T06:01:09.128Z,19.10
2022-12-13T06:03:56.204Z,16.87
2022-12-13T06:06:43.252Z,16.53
2022-12-13T06:09:30.661Z,16.33
2022-12-13T06:12:32.041Z,16.97
2022-12-13T06:15:22.528Z,16.57
2022-12-13T06:18:09.692Z,17.93
2022-12-13T06:21:02.616Z,31.97
2022-12-13T06:23:49.642Z,20.47
2022-12-13T06:26:36.549Z,16.77
2022-12-13T06:29:25.521Z,16.93
2022-12-13T06:32:13.147Z,18.30
2022-12-13T06:35:00.347Z,16.53
2022-12-13T06:37:52.325Z,16.37
2022-12-13T06:40:39.852Z,15.93
2022-12-13T06:43:26.767Z,14.47
2022-12-13T06:46:15.150Z,14.47
2022-12-13T06:49:02.291Z,14.93
2022-12-13T06:51:49.230Z,15.30
2022-12-13T06:54:36.172Z,15.43
2022-12-13T06:57:23.449Z,16.27
2022-12-13T07:00:11.222Z,13.77
2022-12-13T07:02:58.314Z,27.57
2022-12-13T07:05:45.345Z,23.80
2022-12-13T07:08:32.393Z,18.73
2022-12-13T07:11:30.809Z,21.37
2022-12-13T07:14:17.896Z,33.57
2022-12-13T07:17:04.827Z,28.43
2022-12-13T07:19:51.788Z,27.17
2022-12-13T07:22:46.775Z,20.90
2022-12-13T07:25:34.913Z,19.23
2022-12-13T07:28:22.137Z,16.27
2022-12-13T07:31:10.166Z,18.27
2022-12-13T07:33:57.157Z,16.80
2022-12-13T07:36:45.118Z,15.47
2022-12-13T07:39:32.248Z,15.40
2022-12-13T07:42:19.485Z,16.03
2022-12-13T07:45:06.786Z,15.47
2022-12-13T07:47:53.808Z,14.77
2022-12-13T07:50:40.814Z,16.37
2022-12-13T07:53:28.525Z,15.67
2022-12-13T07:56:20.456Z,14.83
2022-12-13T07:59:07.397Z,15.33
2022-12-13T08:01:54.732Z,15.03
2022-12-13T08:04:43.060Z,15.90
2022-12-13T08:07:30.019Z,14.93
2022-12-13T08:10:16.990Z,14.63
2022-12-13T08:13:04.183Z,13.13
2022-12-13T08:15:51.164Z,14.03
2022-12-13T08:18:39.573Z,13.93
2022-12-13T08:21:52.666Z,12.97
2022-12-13T08:24:35.093Z,11.90
2022-12-13T08:27:22.066Z,12.13
2022-12-13T08:30:09.573Z,13.20
2022-12-13T08:32:56.583Z,11.47
2022-12-13T08:35:43.854Z,11.50
2022-12-13T08:38:30.777Z,12.00
2022-12-13T08:41:18.012Z,10.60
2022-12-13T08:44:05.050Z,9.70
2022-12-13T08:46:52.008Z,10.73
2022-12-13T08:49:39.006Z,10.63
2022-12-13T08:52:26.027Z,9.43
2022-12-13T08:55:14.934Z,10.03
2022-12-13T08:58:08.321Z,8.70
2022-12-13T09:00:56.107Z,8.87
2022-12-13T09:03:43.019Z,8.93
2022-12-13T09:06:29.927Z,9.13
2022-12-13T09:09:16.861Z,8.23
2022-12-13T09:12:11.130Z,9.50
2022-12-13T09:15:22.533Z,8.57
2022-12-13T09:18:15.193Z,8.93
2022-12-13T09:21:12.084Z,7.63
2022-12-13T09:24:01.991Z,8.77
2022-12-13T09:26:49.344Z,8.23
2022-12-13T09:29:44.360Z,7.60
2022-12-13T09:32:31.683Z,7.87
2022-12-13T09:35:18.611Z,7.60
2022-12-13T09:38:05.876Z,8.50
2022-12-13T09:40:59.062Z,9.27
2022-12-13T09:43:53.830Z,9.63
2022-12-13T09:46:49.237Z,10.60
2022-12-13T09:49:40.624Z,11.43
2022-12-13T09:52:33.524Z,10.73
2022-12-13T09:55:25.893Z,9.67
2022-12-13T09:58:16.535Z,11.07
2022-12-13T10:01:05.500Z,11.60
2022-12-13T10:03:54.595Z,9.43
2022-12-13T10:06:41.544Z,9.63
2022-12-13T10:09:28.500Z,9.27
2022-12-13T10:12:16.825Z,9.13
2022-12-13T10:15:03.989Z,9.57
2022-12-13T10:17:51.904Z,9.60
2022-12-13T10:20:43.768Z,10.13
2022-12-13T10:23:42.713Z,10.10
2022-12-13T10:26:39.000Z,9.23
2022-12-13T10:29:26.248Z,10.40
2022-12-13T10:32:13.702Z,9.17
2022-12-13T10:35:11.513Z,9.90
2022-12-13T10:38:02.087Z,10.13
2022-12-13T10:40:49.141Z,11.23
2022-12-13T10:43:36.174Z,11.00
2022-12-13T10:46:25.584Z,10.77
2022-12-13T10:49:19.679Z,10.73
2022-12-13T10:52:19.889Z,10.57
2022-12-13T10:55:32.280Z,10.23
2022-12-13T10:58:20.856Z,10.90
2022-12-13T11:01:11.341Z,10.60
2022-12-13T11:04:03.166Z,11.07
2022-12-13T11:06:50.491Z,10.77
2022-12-13T11:09:38.386Z,10.70
2022-12-13T11:12:27.762Z,13.27
2022-12-13T11:15:23.118Z,19.23
2022-12-13T11:18:20.066Z,19.97
2022-12-13T11:21:07.803Z,22.80
2022-12-13T11:23:56.453Z,12.10
2022-12-13T11:26:54.104Z,10.93
2022-12-13T11:30:07.829Z,12.07
2022-12-13T11:33:06.156Z,11.83
2022-12-13T11:36:12.023Z,11.73
2022-12-13T11:39:17.530Z,13.03
2022-12-13T11:42:14.241Z,11.67
2022-12-13T11:45:04.654Z,11.03
2022-12-13T11:47:51.964Z,11.67
2022-12-13T11:50:47.785Z,13.30
2022-12-13T11:53:39.846Z,12.37
2022-12-13T11:56:29.224Z,12.87
2022-12-13T11:59:27.285Z,12.27
2022-12-13T12:02:19.966Z,12.80
2022-12-13T12:05:15.085Z,11.57
2022-12-13T12:08:31.891Z,11.83
2022-12-13T12:11:20.149Z,12.33
2022-12-13T12:14:19.754Z,11.37
2022-12-13T12:17:07.383Z,13.30
2022-12-13T12:19:55.640Z,12.70
2022-12-13T12:22:45.777Z,11.90
2022-12-13T12:25:39.071Z,12.30
2022-12-13T12:28:29.843Z,13.53
2022-12-13T12:31:20.030Z,13.80
2022-12-13T12:34:19.361Z,12.33
2022-12-13T12:37:26.998Z,12.50
2022-12-13T12:40:52.299Z,13.67
2022-12-13T12:43:41.223Z,13.40
2022-12-13T12:47:09.201Z,12.33
2022-12-13T12:50:15.140Z,13.43
2022-12-13T12:53:23.648Z,12.57
2022-12-13T12:56:29.759Z,12.67
2022-12-13T12:59:31.512Z,12.70
2022-12-13T13:02:22.743Z,12.23
2022-12-13T13:05:16.586Z,13.23
2022-12-13T13:08:13.606Z,12.50
2022-12-13T13:11:02.336Z,12.53
2022-12-13T13:14:01.338Z,12.07
2022-12-13T13:16:51.587Z,12.70
2022-12-13T13:19:44.517Z,14.17
2022-12-13T13:22:43.481Z,13.07
2022-12-13T13:25:48.557Z,12.80
2022-12-13T13:28:44.297Z,12.70
2022-12-13T13:31:57.948Z,13.23
2022-12-13T13:34:51.585Z,13.70
2022-12-13T13:37:48.203Z,13.10
2022-12-13T13:40:40.474Z,13.13
2022-12-13T13:43:32.887Z,13.63
2022-12-13T13:46:23.638Z,14.40
2022-12-13T13:49:13.136Z,14.10
2022-12-13T13:52:24.386Z,21.60
2022-12-13T13:55:20.525Z,21.00
2022-12-13T13:58:21.383Z,19.93
2022-12-13T14:01:20.837Z,48.00
2022-12-13T14:04:23.074Z,20.30
2022-12-13T14:07:28.785Z,18.33
2022-12-13T14:10:23.658Z,35.37
2022-12-13T14:13:32.178Z,18.43
2022-12-13T14:16:26.828Z,17.73
2022-12-13T14:19:33.770Z,24.50
2022-12-13T14:22:28.824Z,17.73
2022-12-13T14:25:40.141Z,15.53
2022-12-13T14:28:46.042Z,14.83
2022-12-13T14:31:41.512Z,16.10
2022-12-13T14:34:30.324Z,14.43
2022-12-13T14:37:21.912Z,16.33
2022-12-13T14:40:28.207Z,15.37
2022-12-13T14:43:26.270Z,15.43
2022-12-13T14:46:14.878Z,15.07
2022-12-13T14:49:07.520Z,15.07
2022-12-13T14:52:01.085Z,15.30
2022-12-13T14:54:58.091Z,15.40
2022-12-13T14:57:51.798Z,15.33
2022-12-13T15:00:40.936Z,14.20
2022-12-13T15:03:29.025Z,14.87
2022-12-13T15:06:18.474Z,16.67
2022-12-13T15:09:05.952Z,17.10
2022-12-13T15:11:53.576Z,16.17
2022-12-13T15:14:43.601Z,15.60
2022-12-13T15:17:35.667Z,15.63
2022-12-13T15:20:25.390Z,16.37
2022-12-13T15:23:22.084Z,16.63
2022-12-13T15:26:28.045Z,15.80
2022-12-13T15:29:19.344Z,15.97
2022-12-13T15:32:12.009Z,16.17
2022-12-13T15:35:14.868Z,15.70
2022-12-13T15:38:02.321Z,16.07
2022-12-13T15:40:50.332Z,17.17
2022-12-13T15:43:43.103Z,15.70
2022-12-13T15:46:31.869Z,16.13
2022-12-13T15:49:36.888Z,18.93
2022-12-13T15:52:25.660Z,17.90
2022-12-13T15:55:12.993Z,17.67
2022-12-13T15:58:23.293Z,16.43
2022-12-13T16:01:24.918Z,20.73
2022-12-13T16:04:22.008Z,20.17
2022-12-13T16:07:41.848Z,19.20
2022-12-13T16:10:29.404Z,19.17
2022-12-13T16:13:36.850Z,19.30
2022-12-13T16:16:28.580Z,19.47
2022-12-13T16:19:19.356Z,16.67
2022-12-13T16:22:08.796Z,16.77
2022-12-13T16:24:56.786Z,17.33
2022-12-13T16:27:44.723Z,18.03
2022-12-13T16:30:50.759Z,18.27
2022-12-13T16:33:38.116Z,15.90
2022-12-13T16:36:25.458Z,17.57
2022-12-13T16:39:13.287Z,17.40
2022-12-13T16:42:00.732Z,18.10
2022-12-13T16:44:48.278Z,16.40
2022-12-13T16:47:41.923Z,16.47
2022-12-13T16:50:34.151Z,17.00
2022-12-13T16:53:21.503Z,16.60
2022-12-13T16:56:14.636Z,18.53
2022-12-13T16:59:03.591Z,17.87
2022-12-13T17:01:51.050Z,18.63
2022-12-13T17:04:41.437Z,16.83
2022-12-13T17:07:29.746Z,19.33
2022-12-13T17:10:17.794Z,19.07
2022-12-13T17:13:05.170Z,25.03
2022-12-13T17:15:59.192Z,21.77
2022-12-13T17:18:49.678Z,24.63
2022-12-13T17:21:37.259Z,20.33
2022-12-13T17:24:24.591Z,20.43
2022-12-13T17:27:12.007Z,25.23
2022-12-13T17:30:00.843Z,21.97
2022-12-13T17:32:48.200Z,25.07
2022-12-13T17:35:35.585Z,22.53
2022-12-13T17:38:23.233Z,19.40
2022-12-13T17:41:10.785Z,18.07
2022-12-13T17:44:01.859Z,17.33
2022-12-13T17:46:54.607Z,16.90
2022-12-13T17:49:42.681Z,17.53
2022-12-13T17:52:30.099Z,17.37
2022-12-13T17:55:18.610Z,17.63
2022-12-13T17:58:06.484Z,16.60
2022-12-13T18:00:54.197Z,17.90
2022-12-13T18:03:41.969Z,17.40
2022-12-13T18:06:29.299Z,17.60
2022-12-13T18:09:16.796Z,17.90
2022-12-13T18:12:04.310Z,18.23
2022-12-13T18:14:51.751Z,17.33
2022-12-13T18:18:09.496Z,17.63
2022-12-13T18:20:46.810Z,17.60
2022-12-13T18:23:35.340Z,16.83
2022-12-13T18:26:22.798Z,17.13
2022-12-13T18:29:10.220Z,18.57
2022-12-13T18:31:57.570Z,17.33
2022-12-13T18:34:45.241Z,16.80
2022-12-13T18:37:32.628Z,18.60
2022-12-13T18:40:19.985Z,17.87
2022-12-13T18:43:07.857Z,18.20
2022-12-13T18:45:55.346Z,16.40
2022-12-13T18:48:43.003Z,17.33
2022-12-13T18:51:30.594Z,16.87
2022-12-13T18:54:18.320Z,17.90
2022-12-13T18:57:05.670Z,17.70
2022-12-13T18:59:54.770Z,18.30
2022-12-13T19:02:42.361Z,17.50
2022-12-13T19:05:29.824Z,17.40
2022-12-13T19:08:17.227Z,18.63
2022-12-13T19:11:04.664Z,22.10
2022-12-13T19:13:52.647Z,19.80
2022-12-13T19:16:40.300Z,20.87
2022-12-13T19:19:28.357Z,20.87
2022-12-13T19:22:16.267Z,19.73
2022-12-13T19:25:04.816Z,17.33
2022-12-13T19:27:56.650Z,19.10
2022-12-13T19:30:46.141Z,19.23
2022-12-13T19:33:33.764Z,17.97
2022-12-13T19:36:21.452Z,26.38
2022-12-13T19:39:11.042Z,20.93
2022-12-13T19:41:58.391Z,20.03
2022-12-13T19:44:45.742Z,28.35
2022-12-13T19:47:33.925Z,22.40
2022-12-13T19:50:21.354Z,20.83
2022-12-13T19:53:08.830Z,19.13
2022-12-13T19:55:56.288Z,18.93
2022-12-13T19:58:44.383Z,19.40
2022-12-13T20:01:31.962Z,19.33
2022-12-13T20:04:19.552Z,20.93
2022-12-13T20:07:07.427Z,18.93
2022-12-13T20:09:54.854Z,20.00
2022-12-13T20:12:42.430Z,22.27
2022-12-13T20:15:30.646Z,20.87
2022-12-13T20:18:18.049Z,19.80
2022-12-13T20:21:12.495Z,29.00
2022-12-13T20:24:00.837Z,21.20
2022-12-13T20:26:48.196Z,19.70
2022-12-13T20:29:36.636Z,20.40
2022-12-13T20:32:24.304Z,19.23
2022-12-13T20:35:13.548Z,18.63
2022-12-13T20:38:03.978Z,19.97
2022-12-13T20:40:51.369Z,18.80
2022-12-13T20:43:40.230Z,19.70
2022-12-13T20:46:31.899Z,19.13
2022-12-13T20:49:20.223Z,18.87
2022-12-13T20:52:08.557Z,19.60
2022-12-13T20:54:56.020Z,18.23
2022-12-13T20:57:43.373Z,18.17
2022-12-13T21:00:31.062Z,18.40
2022-12-13T21:03:18.529Z,18.03
2022-12-13T21:06:06.638Z,19.17
2022-12-13T21:08:54.699Z,18.50
2022-12-13T21:11:43.461Z,18.20
2022-12-13T21:14:30.858Z,19.03
2022-12-13T21:17:18.195Z,17.93
2022-12-13T21:20:05.797Z,17.83
2022-12-13T21:22:53.737Z,18.60
2022-12-13T21:25:41.551Z,16.57
2022-12-13T21:28:28.963Z,19.70
2022-12-13T21:31:23.032Z,19.00
2022-12-13T21:34:11.017Z,20.00
2022-12-13T21:36:58.355Z,19.87
2022-12-13T21:39:46.131Z,18.53
2022-12-13T21:42:33.466Z,18.40
2022-12-13T21:45:20.833Z,17.97
2022-12-13T21:48:08.594Z,18.83
2022-12-13T21:50:56.023Z,19.17
2022-12-13T21:53:45.874Z,20.57
2022-12-13T21:56:51.969Z,19.23
2022-12-13T21:59:39.323Z,18.07
2022-12-13T22:02:26.969Z,18.47
2022-12-13T22:05:14.379Z,18.77
2022-12-13T22:08:01.725Z,18.73
2022-12-13T22:11:08.012Z,20.27
2022-12-13T22:13:56.753Z,18.47
2022-12-13T22:16:44.139Z,16.87
2022-12-13T22:19:31.547Z,17.43
2022-12-13T22:22:20.038Z,18.53
2022-12-13T22:25:08.012Z,16.93
2022-12-13T22:27:55.324Z,18.60
2022-12-13T22:30:42.719Z,18.77
2022-12-13T22:33:30.047Z,20.67
2022-12-13T22:36:17.437Z,18.10
2022-12-13T22:39:05.856Z,18.60
2022-12-13T22:41:53.199Z,17.23
2022-12-13T22:44:40.225Z,19.33
2022-12-13T22:47:27.429Z,16.20
2022-12-13T22:50:14.556Z,18.47
2022-12-13T22:53:01.674Z,17.70
2022-12-13T22:55:48.576Z,17.97
2022-12-13T22:58:37.223Z,17.80
2022-12-13T23:01:26.697Z,17.67
2022-12-13T23:04:13.734Z,17.80
2022-12-13T23:07:00.842Z,18.00
2022-12-13T23:09:47.763Z,18.03
2022-12-13T23:12:53.284Z,17.23
2022-12-13T23:15:44.559Z,17.00
2022-12-13T23:18:34.583Z,18.00
2022-12-13T23:21:23.466Z,18.57
2022-12-13T23:24:10.996Z,16.33
2022-12-13T23:26:57.916Z,17.50
2022-12-13T23:29:44.853Z,18.20
2022-12-13T23:32:31.802Z,17.93
2022-12-13T23:35:19.105Z,17.10
2022-12-13T23:38:05.996Z,17.00
2022-12-13T23:41:10.482Z,16.67
2022-12-13T23:43:58.737Z,16.53
2022-12-13T23:46:48.333Z,17.13
2022-12-13T23:49:35.862Z,16.77
2022-12-13T23:52:22.847Z,15.97
2022-12-13T23:55:10.032Z,16.53
2022-12-13T23:57:56.930Z,17.63
